Flowerfield, New York
Current Conditions -  °F | °C
As of 8:56 PM on Monday 24 Nov 2014 (Local Time) from KISP Reporting Station
Broken Clouds Broken Clouds  
Wind Chill: 58°   Ceiling: 900
Heat Index: 58°   Visibility: 8mi
Dew Point: 56°   Wind: 18mph
Humidity: 93%   Direction: 220°SW
Pressure: 29.73"   Gusts: 26mph
Location:  40.8903°N, 73.169°W
Report Text: KISP 250156Z 22016G23KT 8SM BKN009 14/13 A2973 RMK AO2 SLP066 BKN V SCT T01440133
Loading
Personal Weather Stations






























Interactive Weather Map New forecast layout! Learn more

10-Day Weather Forecast

Advertisements
Track Severe Weather on mobile